Time;durP1;ratioP1;P1;durP2;ratioP2;P2;SDS_P1;SDS_P2;PMS_P1;PMS_P2;Temp;Humidity;BMP_temperature;BMP_pressure;BME280_temperature;BME280_humidity;BME280_pressure;Samples;Min_cycle;Max_cycle;Signal;HPM_P1;HPM_P2
2022/08/29 00:00:40;;;;;;;7.18;2.42;;;;;;;17.08;78.40;101891.75;20835509;28;20049;-62
2022/08/29 00:11:05;;;;;;;6.90;2.20;;;;;;;17.08;78.88;101883.84;20840947;28;20379;-60
2022/08/29 00:21:27;;;;;;;9.70;2.58;;;;;;;17.14;79.71;101873.69;20826293;28;20049;-60
2022/08/29 00:31:48;;;;;;;6.30;2.35;;;;;;;16.81;81.60;101883.25;20821918;28;20056;-60
2022/08/29 00:42:10;;;;;;;7.35;2.35;;;;;;;16.97;81.95;101889.91;20836580;28;20059;-60
2022/08/29 00:52:45;;;;;;;12.13;2.45;;;;;;;16.81;83.72;101884.06;20828797;28;20053;-60
2022/08/29 01:03:07;;;;;;;7.72;2.38;;;;;;;16.79;83.97;101874.63;20834187;28;20136;-60
2022/08/29 01:13:35;;;;;;;7.38;2.53;;;;;;;16.50;85.99;101873.25;20830265;28;20045;-61
2022/08/29 01:24:14;;;;;;;10.35;2.38;;;;;;;16.69;85.57;101887.63;20825187;28;20056;-60
2022/08/29 01:34:35;;;;;;;11.57;2.45;;;;;;;16.45;87.93;101881.47;20814629;28;20480;-60
2022/08/29 01:44:59;;;;;;;4.57;1.85;;;;;;;16.34;89.17;101882.34;20825084;28;20045;-60
2022/08/29 01:55:23;;;;;;;12.70;2.70;;;;;;;16.29;90.04;101884.47;20826961;28;20052;-60
2022/08/29 02:05:46;;;;;;;11.55;2.40;;;;;;;16.36;90.56;101886.59;20833093;28;20053;-60
2022/08/29 02:16:08;;;;;;;10.45;2.50;;;;;;;16.44;91.53;101885.09;20820511;28;20370;-60
2022/08/29 02:26:30;;;;;;;10.25;2.42;;;;;;;16.22;93.39;101872.69;20826677;28;20045;-60
2022/08/29 02:36:52;;;;;;;11.30;2.53;;;;;;;16.17;95.11;101887.94;20826196;28;20050;-60
2022/08/29 02:47:13;;;;;;;9.07;2.15;;;;;;;16.10;97.21;101878.81;20823344;28;20656;-60
2022/08/29 02:57:35;;;;;;;7.45;2.30;;;;;;;16.20;97.13;101869.31;20842898;28;20041;-60
2022/08/29 03:07:57;;;;;;;5.78;2.28;;;;;;;16.24;97.00;101868.16;20832819;28;20056;-59
2022/08/29 03:18:19;;;;;;;9.55;2.65;;;;;;;16.12;99.69;101866.41;20810126;28;20049;-61
2022/08/29 03:28:44;;;;;;;10.65;2.97;;;;;;;16.12;100.00;101854.06;20861261;28;20493;-63
2022/08/29 03:39:05;;;;;;;11.05;2.63;;;;;;;16.06;100.00;101867.69;20849047;28;20049;-61
2022/08/29 03:49:27;;;;;;;8.48;2.70;;;;;;;16.08;100.00;101870.19;20839020;28;20047;-61
2022/08/29 03:59:49;;;;;;;9.18;2.50;;;;;;;16.14;100.00;101875.84;20834498;28;20045;-60
2022/08/29 04:10:21;;;;;;;9.38;2.78;;;;;;;16.26;100.00;101874.16;20837722;28;20029;-60
2022/08/29 04:20:43;;;;;;;11.32;2.95;;;;;;;16.19;100.00;101875.53;20838140;28;20044;-61
2022/08/29 04:31:11;;;;;;;11.55;3.00;;;;;;;16.12;100.00;101887.44;20833758;28;20049;-60
2022/08/29 04:41:34;;;;;;;10.38;2.65;;;;;;;16.14;100.00;101896.06;20830473;28;20052;-60
2022/08/29 04:51:55;;;;;;;9.35;2.72;;;;;;;16.17;100.00;101895.84;20834000;28;20059;-60
2022/08/29 05:02:17;;;;;;;9.70;3.05;;;;;;;16.00;100.00;101893.56;20827419;28;20046;-60
2022/08/29 05:12:39;;;;;;;12.27;3.28;;;;;;;16.19;100.00;101900.06;20817757;28;20690;-60
2022/08/29 05:23:01;;;;;;;9.50;3.47;;;;;;;16.29;100.00;101902.88;20831502;28;20045;-61
2022/08/29 05:33:22;;;;;;;7.30;3.08;;;;;;;16.34;100.00;101924.47;20824231;28;20052;-61
2022/08/29 05:43:44;;;;;;;9.98;3.35;;;;;;;16.37;100.00;101919.00;20823997;28;20386;-60
2022/08/29 05:54:06;;;;;;;14.70;3.65;;;;;;;16.38;100.00;101915.41;20820903;28;20049;-60
2022/08/29 06:04:28;;;;;;;11.05;3.40;;;;;;;16.73;100.00;101939.13;20825019;28;20053;-60
2022/08/29 06:14:50;;;;;;;15.52;3.65;;;;;;;16.86;100.00;101934.63;20830303;28;20056;-60
2022/08/29 06:25:12;;;;;;;10.07;3.58;;;;;;;17.10;100.00;101943.38;20828063;28;20045;-60
2022/08/29 06:35:54;;;;;;;13.15;3.10;;;;;;;17.29;100.00;101954.25;20840739;28;20049;-60
2022/08/29 06:46:34;;;;;;;16.63;3.45;;;;;;;17.35;100.00;101956.44;20843124;28;20136;-60
2022/08/29 06:56:57;;;;;;;15.53;3.10;;;;;;;17.58;100.00;101950.28;20838356;28;20045;-60
2022/08/29 07:07:18;;;;;;;12.23;3.80;;;;;;;17.73;100.00;101943.84;20838458;28;20052;-61
2022/08/29 07:17:40;;;;;;;11.27;3.58;;;;;;;17.96;100.00;101950.81;20839183;28;20051;-60
2022/08/29 07:28:03;;;;;;;14.02;3.72;;;;;;;18.19;100.00;101947.25;20826081;28;20049;-60
2022/08/29 07:38:27;;;;;;;15.10;3.88;;;;;;;18.33;100.00;101954.97;20835170;28;20867;-60
2022/08/29 07:48:49;;;;;;;17.00;3.78;;;;;;;18.83;100.00;101950.78;20833618;28;20128;-60
2022/08/29 07:59:12;;;;;;;16.42;3.80;;;;;;;18.94;100.00;101953.41;20821636;28;20410;-61
2022/08/29 08:09:33;;;;;;;16.23;3.20;;;;;;;19.21;96.25;101972.31;20841980;28;20057;-61
2022/08/29 08:19:55;;;;;;;12.55;2.63;;;;;;;19.37;93.31;101972.75;20816316;28;20207;-61
2022/08/29 08:30:17;;;;;;;44.38;5.85;;;;;;;19.28;95.33;101989.38;20816523;28;20106;-61
2022/08/29 08:41:03;;;;;;;7.32;1.80;;;;;;;19.20;94.14;101981.25;20835382;28;20057;-61
2022/08/29 08:51:29;;;;;;;5.32;1.60;;;;;;;19.34;91.11;101994.19;20825892;28;20057;-60
2022/08/29 09:02:05;;;;;;;3.75;1.42;;;;;;;19.66;88.49;102005.53;20831724;28;20053;-61
2022/08/29 09:13:06;;;;;;;3.53;1.50;;;;;;;19.79;87.65;101995.66;20830326;28;20056;-61
2022/08/29 09:23:48;;;;;;;2.97;1.60;;;;;;;19.71;88.66;101992.78;20824492;28;20041;-60
2022/08/29 09:34:12;;;;;;;3.00;1.63;;;;;;;19.75;88.43;101996.84;20828877;28;20047;-61
2022/08/29 09:44:34;;;;;;;2.60;1.65;;;;;;;20.01;86.26;102000.81;20829286;28;20040;-61
2022/08/29 09:54:56;;;;;;;4.50;1.77;;;;;;;20.29;87.31;101997.47;20834608;28;20049;-62
2022/08/29 10:05:33;;;;;;;5.05;1.58;;;;;;;20.76;84.29;101989.69;20832524;28;20546;-61
2022/08/29 10:16:28;;;;;;;6.15;1.77;;;;;;;20.52;84.61;101995.34;20810874;28;20050;-62
2022/08/29 10:27:03;;;;;;;2.40;0.95;;;;;;;20.41;81.29;102010.50;20825663;28;20063;-62
2022/08/29 10:37:30;;;;;;;2.63;1.15;;;;;;;20.64;80.10;102001.38;20848669;28;20118;-62
2022/08/29 10:48:08;;;;;;;3.80;0.98;;;;;;;20.82;78.55;102005.09;20824186;28;20049;-62
2022/08/29 10:58:55;;;;;;;4.25;1.13;;;;;;;20.99;78.87;102023.84;20820738;28;20045;-63
2022/08/29 11:09:28;;;;;;;3.22;0.98;;;;;;;21.03;78.67;102030.56;20828333;28;20513;-62
2022/08/29 11:20:14;;;;;;;2.55;0.90;;;;;;;21.62;77.10;102028.69;20822510;28;20051;-65
2022/08/29 11:31:01;;;;;;;1.73;1.08;;;;;;;21.53;74.22;102022.38;20844774;28;20045;-62
2022/08/29 11:41:31;;;;;;;4.15;1.10;;;;;;;21.58;76.56;102024.63;20836065;28;20041;-62
2022/08/29 11:51:57;;;;;;;2.58;1.00;;;;;;;21.88;76.10;102019.16;20830322;28;20084;-61
2022/08/29 12:02:40;;;;;;;2.15;1.10;;;;;;;21.25;75.25;102014.38;20839220;28;20048;-62
2022/08/29 12:13:07;;;;;;;1.90;1.10;;;;;;;22.21;71.68;102016.84;20832114;28;20406;-62
2022/08/29 12:23:34;;;;;;;2.72;1.20;;;;;;;21.62;73.24;102020.72;20833764;28;20070;-61
2022/08/29 12:34:01;;;;;;;6.43;1.35;;;;;;;21.73;72.64;102007.31;20837582;28;20045;-62
2022/08/29 12:44:46;;;;;;;4.22;1.15;;;;;;;21.58;71.93;101990.13;20839981;28;20046;-62
2022/08/29 12:55:31;;;;;;;3.55;0.90;;;;;;;21.53;74.12;101987.03;20832835;28;20092;-62
2022/08/29 13:06:03;;;;;;;3.60;1.50;;;;;;;21.45;72.95;101973.63;20829447;28;20129;-63
2022/08/29 13:16:28;;;;;;;2.35;1.08;;;;;;;21.49;74.34;101981.16;20831558;28;20045;-63
2022/08/29 13:26:57;;;;;;;15.25;1.30;;;;;;;21.73;72.72;101986.91;20837213;28;20060;-63
2022/08/29 13:37:36;;;;;;;2.60;1.20;;;;;;;21.59;71.76;101970.56;20821045;28;20144;-61
2022/08/29 13:48:01;;;;;;;2.28;0.90;;;;;;;21.74;72.37;101959.38;20818082;28;20566;-61
2022/08/29 13:58:25;;;;;;;7.13;1.02;;;;;;;21.51;71.74;101968.59;20826421;28;20048;-61
2022/08/29 14:08:47;;;;;;;3.05;1.10;;;;;;;21.68;72.70;101959.13;20805180;28;20494;-61
2022/08/29 14:19:09;;;;;;;4.63;1.15;;;;;;;21.79;73.69;101957.13;20805168;28;20124;-61
2022/08/29 14:29:32;;;;;;;2.78;1.17;;;;;;;21.59;74.84;101955.50;20813287;28;20053;-63
2022/08/29 14:39:54;;;;;;;7.20;1.10;;;;;;;21.46;75.68;101954.06;20800870;28;20055;-61
2022/08/29 14:50:18;;;;;;;2.50;1.15;;;;;;;21.40;75.87;101954.63;20827878;28;20038;-61
2022/08/29 15:00:41;;;;;;;2.42;1.00;;;;;;;21.33;75.26;101965.94;20827139;28;20045;-61
2022/08/29 15:11:02;;;;;;;3.05;1.00;;;;;;;21.39;74.61;101961.75;20822716;28;20053;-61
2022/08/29 15:21:25;;;;;;;0.98;0.90;;;;;;;21.26;75.18;101959.53;20829807;28;20075;-61
2022/08/29 15:31:46;;;;;;;1.70;0.65;;;;;;;21.32;74.21;101946.53;20815482;28;20091;-61
2022/08/29 15:42:10;;;;;;;1.35;0.68;;;;;;;21.32;73.22;101946.53;20821797;28;20049;-61
2022/08/29 15:52:37;;;;;;;1.37;0.60;;;;;;;21.29;71.27;101946.81;20828066;28;20060;-61
2022/08/29 16:03:01;;;;;;;0.80;0.40;;;;;;;21.20;72.02;101950.31;20816169;28;20053;-61
2022/08/29 16:13:23;;;;;;;1.95;0.50;;;;;;;21.47;71.02;101945.13;20809980;28;20037;-61
2022/08/29 16:23:46;;;;;;;1.17;0.57;;;;;;;21.81;71.49;101928.59;20844686;28;20046;-62
2022/08/29 16:34:07;;;;;;;2.13;0.85;;;;;;;21.41;74.90;101929.75;20824848;28;20056;-61
2022/08/29 16:44:30;;;;;;;0.60;0.50;;;;;;;21.82;74.80;101924.16;20825198;28;20049;-61
2022/08/29 16:54:52;;;;;;;0.95;0.70;;;;;;;21.19;76.45;101929.22;20806028;28;20056;-62
2022/08/29 17:05:14;;;;;;;1.17;0.90;;;;;;;21.07;77.57;101922.38;20824664;28;20421;-60
2022/08/29 17:25:59;;;;;;;1.70;1.05;;;;;;;20.77;78.94;101920.66;20809598;28;20045;-61
2022/08/29 17:36:21;;;;;;;2.88;1.33;;;;;;;20.63;79.70;101909.59;20817398;28;20072;-61
2022/08/29 17:46:44;;;;;;;2.05;1.50;;;;;;;20.40;81.29;101914.28;20812206;28;20110;-60
2022/08/29 17:57:06;;;;;;;1.35;1.10;;;;;;;20.26;82.23;101931.53;20806129;28;20052;-62
2022/08/29 18:07:28;;;;;;;3.55;1.88;;;;;;;20.16;82.73;101942.06;20819696;28;20076;-61
2022/08/29 18:17:51;;;;;;;2.30;1.30;;;;;;;20.05;82.69;101951.94;20799396;28;20038;-62
2022/08/29 18:28:13;;;;;;;2.40;1.38;;;;;;;19.81;84.07;101962.78;20816843;28;20056;-61
2022/08/29 18:38:36;;;;;;;2.50;1.15;;;;;;;19.77;84.36;101956.06;20829917;28;20045;-60
2022/08/29 18:48:58;;;;;;;1.33;1.23;;;;;;;19.71;84.27;101961.03;20820020;28;20068;-60
2022/08/29 18:59:19;;;;;;;1.67;0.90;;;;;;;19.65;84.31;101972.13;20828305;28;20045;-60
2022/08/29 19:09:42;;;;;;;3.38;1.40;;;;;;;19.57;85.00;101982.50;20826006;28;20477;-61
2022/08/29 19:30:48;;;;;;;3.08;1.33;;;;;;;19.38;85.53;102006.16;20843232;28;20029;-62
2022/08/29 19:41:11;;;;;;;3.70;1.27;;;;;;;19.11;85.87;102008.38;20824625;28;20049;-62
2022/08/29 19:51:33;;;;;;;4.63;1.50;;;;;;;19.17;86.21;102015.88;20838898;28;20041;-60
2022/08/29 20:01:57;;;;;;;4.80;1.65;;;;;;;18.95;86.76;102018.50;20819319;28;20053;-61
2022/08/29 20:12:18;;;;;;;10.02;1.60;;;;;;;18.88;87.36;102022.63;20827861;28;20038;-61
2022/08/29 20:22:40;;;;;;;2.95;1.30;;;;;;;18.70;87.82;102037.28;20831099;28;20041;-60
2022/08/29 20:33:03;;;;;;;6.13;1.80;;;;;;;18.67;87.82;102040.19;20830381;28;20530;-61
2022/08/29 20:43:27;;;;;;;2.72;1.58;;;;;;;18.56;88.07;102053.41;20827907;28;20138;-61
2022/08/29 20:53:48;;;;;;;5.53;1.60;;;;;;;18.62;87.15;102060.84;20840287;28;20045;-61
2022/08/29 21:14:51;;;;;;;1.67;1.35;;;;;;;18.33;87.66;102040.28;20816964;28;20046;-60
2022/08/29 21:25:14;;;;;;;4.47;1.60;;;;;;;18.30;87.58;102050.25;20833425;28;20407;-61
2022/08/29 21:35:39;;;;;;;4.85;1.60;;;;;;;18.33;86.95;102057.94;20818150;28;20059;-61
2022/08/29 21:46:00;;;;;;;2.53;1.25;;;;;;;18.21;86.63;102050.91;20828035;28;20045;-60
2022/08/29 21:56:24;;;;;;;3.45;1.42;;;;;;;18.13;86.74;102048.84;20804008;28;20037;-60
2022/08/29 22:06:46;;;;;;;3.22;1.25;;;;;;;17.97;86.67;102052.78;20818322;28;20474;-61
2022/08/29 22:17:14;;;;;;;2.25;1.45;;;;;;;17.83;86.88;102053.00;20830051;28;20052;-60
2022/08/29 22:27:36;;;;;;;4.97;1.50;;;;;;;17.77;86.97;102061.34;20815824;28;20049;-60
2022/08/29 22:37:58;;;;;;;3.25;1.40;;;;;;;17.71;86.54;102061.81;20816453;28;20591;-60
2022/08/29 22:48:19;;;;;;;1.40;1.25;;;;;;;17.57;87.45;102059.38;20835948;28;20045;-60
2022/08/29 22:58:41;;;;;;;3.95;1.60;;;;;;;17.41;87.99;102062.28;20823549;28;20055;-60
2022/08/29 23:09:03;;;;;;;5.10;2.00;;;;;;;17.14;89.03;102065.19;20821950;28;20552;-60
2022/08/29 23:19:25;;;;;;;2.22;1.27;;;;;;;17.16;89.43;102066.78;20865436;28;20060;-61
2022/08/29 23:29:50;;;;;;;3.88;1.63;;;;;;;17.01;89.05;102074.94;20834371;28;20465;-60
2022/08/29 23:40:12;;;;;;;6.38;1.50;;;;;;;16.90;88.74;102073.06;20827141;28;20037;-60
2022/08/29 23:50:33;;;;;;;3.75;1.30;;;;;;;16.94;88.12;102082.44;20842003;28;20107;-60
